Time;durP1;ratioP1;P1;durP2;ratioP2;P2;SDS_P1;SDS_P2;PMS_P1;PMS_P2;Temp;Humidity;BMP_temperature;BMP_pressure;BME280_temperature;BME280_humidity;BME280_pressure;Samples;Min_cycle;Max_cycle;Signal;HPM_P1;HPM_P2
2023/07/27 00:00:36;;;;;;;1.20;0.70;;;;;;;;;;5082604;27;89772;-58
2023/07/27 00:03:06;;;;;;;0.80;0.80;;;;;;;;;;5082202;27;89064;-58
2023/07/27 00:05:35;;;;;;;1.77;0.70;;;;;;;;;;5082298;27;88830;-58
2023/07/27 00:08:04;;;;;;;0.50;0.50;;;;;;;;;;5081991;27;87808;-59
2023/07/27 00:10:32;;;;;;;1.03;0.83;;;;;;;;;;5081657;27;89631;-58
2023/07/27 00:13:01;;;;;;;0.57;0.57;;;;;;;;;;5081804;27;89124;-58
2023/07/27 00:15:29;;;;;;;1.37;0.80;;;;;;;;;;5082244;27;88790;-58
2023/07/27 00:17:58;;;;;;;2.10;0.90;;;;;;;;;;5082393;27;87608;-58
2023/07/27 00:20:28;;;;;;;1.03;0.90;;;;;;;;;;5082242;27;89923;-58
2023/07/27 00:22:57;;;;;;;0.63;0.57;;;;;;;;;;5081942;27;89007;-58
2023/07/27 00:25:25;;;;;;;2.13;0.87;;;;;;;;;;5082301;27;88781;-58
2023/07/27 00:27:54;;;;;;;1.00;0.90;;;;;;;;;;5082465;27;87572;-58
2023/07/27 00:30:22;;;;;;;0.80;0.60;;;;;;;;;;5081926;27;89779;-58
2023/07/27 00:32:51;;;;;;;0.80;0.70;;;;;;;;;;5081209;27;91472;-58
2023/07/27 00:35:19;;;;;;;1.53;0.70;;;;;;;;;;5082249;27;88511;-58
2023/07/27 00:37:49;;;;;;;0.97;0.70;;;;;;;;;;5081879;27;87609;-58
2023/07/27 00:40:18;;;;;;;1.23;0.73;;;;;;;;;;5081641;27;89263;-59
2023/07/27 00:42:47;;;;;;;0.93;0.70;;;;;;;;;;5081184;27;89146;-58
2023/07/27 00:45:15;;;;;;;0.80;0.70;;;;;;;;;;5082057;27;87364;-58
2023/07/27 00:47:44;;;;;;;1.53;1.13;;;;;;;;;;5082108;27;87380;-58
2023/07/27 00:50:13;;;;;;;0.80;0.80;;;;;;;;;;5078445;27;89712;-58
2023/07/27 00:52:42;;;;;;;0.80;0.80;;;;;;;;;;5073128;27;89349;-58
2023/07/27 00:55:11;;;;;;;1.10;0.80;;;;;;;;;;5074699;27;88853;-57
2023/07/27 00:57:40;;;;;;;1.73;0.77;;;;;;;;;;5069334;27;88054;-57
2023/07/27 01:00:09;;;;;;;0.50;0.50;;;;;;;;;;5077517;27;89577;-58
2023/07/27 01:02:37;;;;;;;1.93;0.60;;;;;;;;;;5072147;27;89138;-57
2023/07/27 01:05:06;;;;;;;0.67;0.67;;;;;;;;;;5080780;27;88882;-57
2023/07/27 01:07:34;;;;;;;1.03;0.93;;;;;;;;;;5068488;27;87758;-57
2023/07/27 01:10:03;;;;;;;1.37;1.00;;;;;;;;;;5064269;27;88899;-57
2023/07/27 01:12:36;;;;;;;1.23;0.97;;;;;;;;;;5078001;27;87831;-57
2023/07/27 01:15:06;;;;;;;3.27;1.40;;;;;;;;;;5072324;27;88719;-57
2023/07/27 01:17:35;;;;;;;2.00;1.13;;;;;;;;;;5084156;27;87622;-57
2023/07/27 01:20:16;;;;;;;3.87;1.97;;;;;;;;;;5084013;27;89638;-57
2023/07/27 01:22:51;;;;;;;3.47;2.20;;;;;;;;;;5083557;27;89985;-57
2023/07/27 01:25:25;;;;;;;2.87;2.00;;;;;;;;;;5084057;27;88513;-57
2023/07/27 01:27:58;;;;;;;4.33;2.50;;;;;;;;;;5067699;27;87481;-57
2023/07/27 01:30:48;;;;;;;3.17;2.40;;;;;;;;;;5081966;27;89759;-56
2023/07/27 01:33:16;;;;;;;3.13;2.07;;;;;;;;;;5084376;27;88960;-56
2023/07/27 01:35:47;;;;;;;4.80;2.97;;;;;;;;;;5084431;27;89079;-56
2023/07/27 01:38:16;;;;;;;17.07;5.53;;;;;;;;;;5083832;27;87598;-57
2023/07/27 01:40:44;;;;;;;9.03;4.50;;;;;;;;;;5084033;27;89624;-56
2023/07/27 01:43:13;;;;;;;9.83;4.17;;;;;;;;;;5083027;27;89178;-56
2023/07/27 01:45:42;;;;;;;5.80;2.97;;;;;;;;;;5082679;27;88769;-57
2023/07/27 01:48:11;;;;;;;8.30;3.43;;;;;;;;;;5076694;27;87947;-57
2023/07/27 01:50:40;;;;;;;6.50;3.47;;;;;;;;;;5082322;27;89597;-56
2023/07/27 01:53:08;;;;;;;7.23;3.63;;;;;;;;;;5083659;27;88938;-57
2023/07/27 01:55:37;;;;;;;7.70;4.40;;;;;;;;;;5083498;27;88751;-56
2023/07/27 01:58:06;;;;;;;7.93;4.20;;;;;;;;;;5075536;27;88768;-57
2023/07/27 02:00:34;;;;;;;6.87;4.33;;;;;;;;;;5082350;27;89736;-56
2023/07/27 02:03:03;;;;;;;8.20;4.77;;;;;;;;;;5070786;27;89192;-57
2023/07/27 02:05:33;;;;;;;9.33;5.13;;;;;;;;;;5083404;27;88516;-56
2023/07/27 02:08:01;;;;;;;7.70;4.40;;;;;;;;;;5083624;27;87602;-57
2023/07/27 02:10:30;;;;;;;9.50;4.80;;;;;;;;;;5083031;27;89548;-57
2023/07/27 02:12:59;;;;;;;7.77;4.53;;;;;;;;;;5083342;27;90439;-56
2023/07/27 02:15:28;;;;;;;8.40;4.87;;;;;;;;;;5080938;27;89708;-57
2023/07/27 02:17:59;;;;;;;9.53;5.00;;;;;;;;;;5080990;27;89021;-56
2023/07/27 02:20:30;;;;;;;11.17;5.00;;;;;;;;;;5063261;27;89666;-57
2023/07/27 02:23:01;;;;;;;10.73;5.97;;;;;;;;;;5063592;27;88372;-57
2023/07/27 02:25:29;;;;;;;9.53;5.50;;;;;;;;;;5063622;27;88558;-57
2023/07/27 02:27:58;;;;;;;8.13;4.80;;;;;;;;;;5077344;27;87629;-57
2023/07/27 02:30:26;;;;;;;10.77;5.80;;;;;;;;;;5083852;27;89700;-57
2023/07/27 02:32:55;;;;;;;11.77;5.47;;;;;;;;;;5082780;27;87991;-57
2023/07/27 02:35:23;;;;;;;11.53;6.10;;;;;;;;;;5079284;27;89105;-56
2023/07/27 02:37:52;;;;;;;10.13;5.80;;;;;;;;;;5062627;27;87835;-56
2023/07/27 02:40:21;;;;;;;11.63;5.70;;;;;;;;;;5065822;27;89734;-56
2023/07/27 02:42:50;;;;;;;9.73;4.73;;;;;;;;;;5082885;27;89090;-56
2023/07/27 02:45:18;;;;;;;10.33;5.53;;;;;;;;;;5082945;27;88693;-57
2023/07/27 02:47:47;;;;;;;11.73;6.33;;;;;;;;;;5083671;27;87656;-57
2023/07/27 02:50:16;;;;;;;10.13;5.07;;;;;;;;;;5083602;27;89634;-56
2023/07/27 02:52:45;;;;;;;9.23;5.50;;;;;;;;;;5076733;27;87495;-56
2023/07/27 02:55:13;;;;;;;10.37;6.47;;;;;;;;;;5080974;27;88870;-56
2023/07/27 02:57:43;;;;;;;8.17;5.80;;;;;;;;;;5082670;27;87566;-56
2023/07/27 03:00:12;;;;;;;10.47;6.47;;;;;;;;;;5083255;27;89747;-56
2023/07/27 03:02:41;;;;;;;8.93;5.97;;;;;;;;;;5082587;27;90088;-56
2023/07/27 03:05:10;;;;;;;6.43;4.70;;;;;;;;;;5082940;27;92671;-56
2023/07/27 03:07:38;;;;;;;10.87;6.10;;;;;;;;;;5083674;27;87630;-56
2023/07/27 03:10:08;;;;;;;11.93;6.27;;;;;;;;;;5072949;27;90268;-56
2023/07/27 03:12:36;;;;;;;8.37;5.20;;;;;;;;;;5062012;27;89164;-56
2023/07/27 03:15:07;;;;;;;12.17;6.43;;;;;;;;;;5061855;27;88846;-56
2023/07/27 03:17:35;;;;;;;11.17;5.70;;;;;;;;;;5063240;27;87381;-56
2023/07/27 03:20:04;;;;;;;10.27;5.43;;;;;;;;;;5063010;27;89582;-56
2023/07/27 03:22:34;;;;;;;12.47;6.03;;;;;;;;;;5074339;27;89414;-56
2023/07/27 03:25:03;;;;;;;8.97;5.70;;;;;;;;;;5079750;27;88801;-56
2023/07/27 03:27:33;;;;;;;9.40;6.40;;;;;;;;;;5073285;27;87952;-56
2023/07/27 03:30:03;;;;;;;8.83;5.03;;;;;;;;;;5062127;27;90205;-56
2023/07/27 03:32:36;;;;;;;13.50;5.33;;;;;;;;;;5061211;27;89248;-56
2023/07/27 03:35:05;;;;;;;6.93;4.73;;;;;;;;;;5063562;27;89549;-56
2023/07/27 03:37:34;;;;;;;8.67;4.77;;;;;;;;;;5059131;27;87305;-56
2023/07/27 03:40:03;;;;;;;9.77;4.57;;;;;;;;;;5071562;27;90795;-56
2023/07/27 03:42:33;;;;;;;7.47;4.80;;;;;;;;;;5064519;27;87585;-56
2023/07/27 03:45:02;;;;;;;7.10;3.70;;;;;;;;;;5064130;27;88689;-56
2023/07/27 03:47:30;;;;;;;6.57;4.73;;;;;;;;;;5080158;27;87624;-56
2023/07/27 03:50:01;;;;;;;7.90;4.60;;;;;;;;;;5070682;27;88947;-57
2023/07/27 03:52:30;;;;;;;8.57;3.93;;;;;;;;;;5070240;27;90149;-57
2023/07/27 03:54:59;;;;;;;8.53;4.20;;;;;;;;;;5067661;27;88087;-56
2023/07/27 03:57:28;;;;;;;9.93;3.93;;;;;;;;;;5075969;27;87996;-57
2023/07/27 03:59:56;;;;;;;5.83;3.57;;;;;;;;;;5066175;27;89915;-56
2023/07/27 04:02:25;;;;;;;4.80;3.50;;;;;;;;;;5058705;27;89196;-56
2023/07/27 04:04:54;;;;;;;5.10;3.23;;;;;;;;;;5071370;27;88882;-56
2023/07/27 04:07:24;;;;;;;6.23;3.90;;;;;;;;;;5066670;27;87632;-56
2023/07/27 04:09:53;;;;;;;5.73;3.10;;;;;;;;;;5070572;27;90007;-56
2023/07/27 04:12:22;;;;;;;5.10;3.07;;;;;;;;;;5077146;27;89095;-57
2023/07/27 04:14:50;;;;;;;7.63;3.37;;;;;;;;;;5070503;27;88819;-56
2023/07/27 04:17:19;;;;;;;5.17;3.80;;;;;;;;;;5080891;27;88010;-56
2023/07/27 04:19:47;;;;;;;6.77;3.83;;;;;;;;;;5081280;27;89578;-56
2023/07/27 04:22:16;;;;;;;9.27;3.83;;;;;;;;;;5082299;27;89132;-57
2023/07/27 04:24:46;;;;;;;6.67;3.20;;;;;;;;;;5076155;27;88806;-56
2023/07/27 04:27:14;;;;;;;9.10;3.00;;;;;;;;;;5081432;27;87121;-56
2023/07/27 04:29:43;;;;;;;5.33;3.50;;;;;;;;;;5064931;27;89713;-56
2023/07/27 04:32:11;;;;;;;5.17;3.60;;;;;;;;;;5081942;27;88980;-56
2023/07/27 04:34:40;;;;;;;6.40;3.93;;;;;;;;;;5078211;27;88558;-56
2023/07/27 04:37:08;;;;;;;5.43;3.37;;;;;;;;;;5082123;27;87500;-56
2023/07/27 04:39:37;;;;;;;4.80;2.87;;;;;;;;;;5067139;27;89653;-56
2023/07/27 04:42:07;;;;;;;5.80;2.93;;;;;;;;;;5078405;27;89047;-56
2023/07/27 04:44:36;;;;;;;5.00;3.33;;;;;;;;;;5061878;27;90183;-56
2023/07/27 04:47:04;;;;;;;5.83;2.93;;;;;;;;;;5067453;27;87615;-56
2023/07/27 04:49:33;;;;;;;3.80;2.87;;;;;;;;;;5074542;27;89753;-56
2023/07/27 04:52:02;;;;;;;5.70;3.60;;;;;;;;;;5079124;27;89141;-56
2023/07/27 04:54:30;;;;;;;5.67;3.40;;;;;;;;;;5071083;27;88783;-56
2023/07/27 04:56:59;;;;;;;5.53;3.23;;;;;;;;;;5077696;27;88020;-56
2023/07/27 04:59:29;;;;;;;4.30;2.90;;;;;;;;;;5073820;27;89785;-56
2023/07/27 05:01:57;;;;;;;4.43;2.90;;;;;;;;;;5060747;27;88893;-57
2023/07/27 05:04:26;;;;;;;4.13;2.73;;;;;;;;;;5069207;27;88929;-57
2023/07/27 05:06:55;;;;;;;6.00;3.30;;;;;;;;;;5071664;27;87926;-57
2023/07/27 05:09:23;;;;;;;3.33;2.77;;;;;;;;;;5080142;27;89262;-57
2023/07/27 05:11:52;;;;;;;4.23;2.77;;;;;;;;;;5067021;27;89130;-57
2023/07/27 05:14:20;;;;;;;3.10;2.20;;;;;;;;;;5068179;27;87865;-56
2023/07/27 05:16:50;;;;;;;2.87;2.00;;;;;;;;;;5075494;27;87512;-56
2023/07/27 05:19:19;;;;;;;3.10;2.13;;;;;;;;;;5078618;27;90637;-56
2023/07/27 05:21:47;;;;;;;4.23;2.63;;;;;;;;;;5072610;27;89134;-57
2023/07/27 05:24:16;;;;;;;4.17;2.80;;;;;;;;;;5063977;27;88667;-56
2023/07/27 05:26:44;;;;;;;2.70;2.13;;;;;;;;;;5061056;27;87545;-57
2023/07/27 05:29:13;;;;;;;6.47;2.43;;;;;;;;;;5065222;27;88478;-57
2023/07/27 05:31:41;;;;;;;4.07;1.97;;;;;;;;;;5079855;27;90222;-56
2023/07/27 05:34:11;;;;;;;2.50;1.40;;;;;;;;;;5067780;27;89879;-57
2023/07/27 05:36:40;;;;;;;4.93;2.67;;;;;;;;;;5081469;27;87569;-57
2023/07/27 05:39:08;;;;;;;3.07;2.57;;;;;;;;;;5073753;27;89667;-56
2023/07/27 05:41:37;;;;;;;3.43;2.17;;;;;;;;;;5076670;27;87915;-56
2023/07/27 05:44:05;;;;;;;3.60;2.23;;;;;;;;;;5079065;27;88930;-57
2023/07/27 05:46:34;;;;;;;2.77;1.93;;;;;;;;;;5081367;27;87367;-56
2023/07/27 05:49:03;;;;;;;3.53;1.90;;;;;;;;;;5067686;27;90055;-56
2023/07/27 05:51:33;;;;;;;3.40;2.30;;;;;;;;;;5060458;27;89189;-56
2023/07/27 05:54:02;;;;;;;3.77;1.83;;;;;;;;;;5060599;27;89261;-56
2023/07/27 05:56:30;;;;;;;2.90;2.00;;;;;;;;;;5060238;27;87675;-56
2023/07/27 05:58:59;;;;;;;2.97;1.83;;;;;;;;;;5060911;27;89682;-56
2023/07/27 06:01:27;;;;;;;2.23;1.60;;;;;;;;;;5080938;27;89070;-56
2023/07/27 06:04:00;;;;;;;3.27;2.20;;;;;;;;;;5084648;27;88894;-57
2023/07/27 06:06:36;;;;;;;2.63;2.20;;;;;;;;;;5084485;27;87659;-57
2023/07/27 06:09:05;;;;;;;2.77;2.13;;;;;;;;;;5084124;27;89652;-56
2023/07/27 06:11:34;;;;;;;3.13;1.90;;;;;;;;;;5084337;27;89099;-56
2023/07/27 06:14:02;;;;;;;2.97;1.97;;;;;;;;;;5084001;27;88829;-56
2023/07/27 06:16:31;;;;;;;2.33;1.70;;;;;;;;;;5082590;27;87566;-56
2023/07/27 06:19:00;;;;;;;1.50;1.40;;;;;;;;;;5063358;27;90638;-56
2023/07/27 06:21:29;;;;;;;4.40;1.90;;;;;;;;;;5072449;27;90749;-56
2023/07/27 06:23:59;;;;;;;1.73;1.47;;;;;;;;;;5079165;27;89831;-56
2023/07/27 06:26:27;;;;;;;1.77;1.53;;;;;;;;;;5066421;27;88415;-56
2023/07/27 06:28:56;;;;;;;1.77;1.50;;;;;;;;;;5062842;27;89790;-56
2023/07/27 06:31:24;;;;;;;3.13;1.40;;;;;;;;;;5070071;27;89728;-56
2023/07/27 06:33:53;;;;;;;1.87;1.43;;;;;;;;;;5063696;27;88580;-57
2023/07/27 06:36:21;;;;;;;1.70;1.37;;;;;;;;;;5075276;27;88847;-56
2023/07/27 06:38:50;;;;;;;1.97;1.30;;;;;;;;;;5082907;27;89569;-56
2023/07/27 06:41:25;;;;;;;1.60;1.43;;;;;;;;;;5082299;27;89144;-56
2023/07/27 06:43:53;;;;;;;2.13;1.53;;;;;;;;;;5078094;27;88996;-56
2023/07/27 06:46:23;;;;;;;1.53;1.20;;;;;;;;;;5067855;27;88066;-57
2023/07/27 06:48:51;;;;;;;3.27;1.33;;;;;;;;;;5081391;27;89820;-56
2023/07/27 06:51:20;;;;;;;2.90;1.40;;;;;;;;;;5080782;27;89593;-56
2023/07/27 06:53:48;;;;;;;1.70;1.17;;;;;;;;;;5081806;27;89040;-56
2023/07/27 06:56:17;;;;;;;2.10;1.00;;;;;;;;;;5082211;27;87577;-56
2023/07/27 06:58:47;;;;;;;2.37;1.60;;;;;;;;;;5075741;27;90073;-56
2023/07/27 07:01:16;;;;;;;1.20;1.00;;;;;;;;;;5069829;27;89511;-57
2023/07/27 07:03:44;;;;;;;1.30;1.20;;;;;;;;;;5071254;27;88581;-57
2023/07/27 07:06:13;;;;;;;1.23;1.03;;;;;;;;;;5077769;27;87619;-56
2023/07/27 07:08:41;;;;;;;3.27;1.57;;;;;;;;;;5080773;27;89439;-57
2023/07/27 07:11:10;;;;;;;1.97;0.90;;;;;;;;;;5080690;27;90111;-56
2023/07/27 07:13:38;;;;;;;1.07;0.90;;;;;;;;;;5067926;27;89737;-56
2023/07/27 07:16:08;;;;;;;0.87;0.87;;;;;;;;;;5065670;27;87657;-56
2023/07/27 07:18:37;;;;;;;2.10;1.00;;;;;;;;;;5064049;27;89155;-57
2023/07/27 07:21:05;;;;;;;2.07;1.03;;;;;;;;;;5083018;27;89218;-57
2023/07/27 07:23:34;;;;;;;1.30;1.00;;;;;;;;;;5063150;27;89380;-56
2023/07/27 07:26:02;;;;;;;1.57;1.00;;;;;;;;;;5077524;27;87532;-56
2023/07/27 07:28:31;;;;;;;1.30;0.90;;;;;;;;;;5069816;27;89656;-56
2023/07/27 07:30:59;;;;;;;0.53;0.50;;;;;;;;;;5062086;27;89077;-56
2023/07/27 07:33:29;;;;;;;0.70;0.70;;;;;;;;;;5062080;27;88980;-56
2023/07/27 07:35:58;;;;;;;1.00;0.80;;;;;;;;;;5062986;27;87949;-57
2023/07/27 07:38:26;;;;;;;0.90;0.60;;;;;;;;;;5070632;27;89793;-57
2023/07/27 07:40:55;;;;;;;1.13;0.50;;;;;;;;;;5082270;27;87802;-56
2023/07/27 07:43:23;;;;;;;1.60;0.87;;;;;;;;;;5074229;27;89192;-58
2023/07/27 07:45:52;;;;;;;0.60;0.60;;;;;;;;;;5078161;27;87645;-56
2023/07/27 07:48:22;;;;;;;1.57;0.50;;;;;;;;;;5082525;27;89597;-57
2023/07/27 07:50:53;;;;;;;0.60;0.60;;;;;;;;;;5082883;27;89044;-57
2023/07/27 07:53:21;;;;;;;0.40;0.40;;;;;;;;;;5083044;27;88833;-56
2023/07/27 07:56:02;;;;;;;0.87;0.60;;;;;;;;;;5082861;27;87564;-56
2023/07/27 07:58:31;;;;;;;0.93;0.70;;;;;;;;;;5077140;27;89887;-57
2023/07/27 08:01:00;;;;;;;1.47;0.87;;;;;;;;;;5067983;27;89797;-56
2023/07/27 08:03:28;;;;;;;0.47;0.47;;;;;;;;;;5082180;27;89706;-56
2023/07/27 08:05:59;;;;;;;0.30;0.30;;;;;;;;;;5082458;27;87639;-56
2023/07/27 08:08:29;;;;;;;1.13;0.50;;;;;;;;;;5082153;27;89659;-56
2023/07/27 08:11:01;;;;;;;0.73;0.50;;;;;;;;;;5081859;27;88964;-56
2023/07/27 08:13:30;;;;;;;0.70;0.60;;;;;;;;;;5074178;27;88746;-57
2023/07/27 08:15:59;;;;;;;1.00;0.60;;;;;;;;;;5062135;27;87515;-56
2023/07/27 08:18:28;;;;;;;1.47;1.00;;;;;;;;;;5061119;27;89770;-56
2023/07/27 08:21:02;;;;;;;1.00;0.93;;;;;;;;;;5064560;27;89078;-56
2023/07/27 08:23:30;;;;;;;1.33;0.80;;;;;;;;;;5068392;27;89003;-57
2023/07/27 08:25:59;;;;;;;0.63;0.63;;;;;;;;;;5060776;27;89174;-56
2023/07/27 08:28:27;;;;;;;1.30;1.20;;;;;;;;;;5066167;27;91062;-56
2023/07/27 08:30:56;;;;;;;1.17;0.90;;;;;;;;;;5064780;27;88974;-56
2023/07/27 08:33:25;;;;;;;1.53;1.03;;;;;;;;;;5079804;27;88853;-56
2023/07/27 08:35:53;;;;;;;3.90;1.17;;;;;;;;;;5070215;27;88270;-57
2023/07/27 08:38:23;;;;;;;1.80;1.40;;;;;;;;;;5070925;27;89614;-56
2023/07/27 08:40:55;;;;;;;2.37;1.40;;;;;;;;;;5079861;27;89161;-57
2023/07/27 08:43:24;;;;;;;1.80;0.87;;;;;;;;;;5068540;27;88184;-56
2023/07/27 08:45:52;;;;;;;1.60;1.27;;;;;;;;;;5082061;27;87492;-57
2023/07/27 08:48:21;;;;;;;1.23;1.00;;;;;;;;;;5081548;27;89903;-56
2023/07/27 08:50:50;;;;;;;2.93;1.37;;;;;;;;;;5065376;27;88711;-56
2023/07/27 08:53:18;;;;;;;1.40;1.20;;;;;;;;;;5061547;27;88320;-56
2023/07/27 08:55:48;;;;;;;1.70;1.20;;;;;;;;;;5061613;27;87722;-56
2023/07/27 08:58:17;;;;;;;1.70;1.30;;;;;;;;;;5065765;27;89651;-56
2023/07/27 09:00:45;;;;;;;3.33;1.03;;;;;;;;;;5075562;27;88033;-57
2023/07/27 09:03:14;;;;;;;1.40;1.20;;;;;;;;;;5080959;27;88879;-56
2023/07/27 09:05:43;;;;;;;0.80;0.80;;;;;;;;;;5081363;27;87626;-56
2023/07/27 09:08:12;;;;;;;1.10;1.03;;;;;;;;;;5077101;27;89698;-57
2023/07/27 09:10:40;;;;;;;0.77;0.77;;;;;;;;;;5081620;27;89202;-56
2023/07/27 09:13:11;;;;;;;1.33;1.07;;;;;;;;;;5081355;27;88797;-57
2023/07/27 09:15:42;;;;;;;1.20;1.10;;;;;;;;;;5080964;27;88131;-56
2023/07/27 09:18:11;;;;;;;1.13;0.93;;;;;;;;;;5080652;27;89348;-56
2023/07/27 09:20:40;;;;;;;1.40;0.93;;;;;;;;;;5081495;27;88881;-56
2023/07/27 09:23:09;;;;;;;1.67;1.17;;;;;;;;;;5079693;27;87618;-56
2023/07/27 09:25:40;;;;;;;1.43;1.20;;;;;;;;;;5079537;27;87493;-56
2023/07/27 09:28:08;;;;;;;0.93;0.90;;;;;;;;;;5080941;27;89621;-57
2023/07/27 09:30:44;;;;;;;1.10;0.93;;;;;;;;;;5077638;27;89107;-56
2023/07/27 09:33:13;;;;;;;1.10;0.90;;;;;;;;;;5066805;27;88885;-56
2023/07/27 09:35:43;;;;;;;1.00;0.60;;;;;;;;;;5081297;27;87592;-56
2023/07/27 09:38:12;;;;;;;1.30;0.90;;;;;;;;;;5084248;27;88571;-56
2023/07/27 09:40:41;;;;;;;0.97;0.80;;;;;;;;;;5077585;27;91664;-57
2023/07/27 09:43:09;;;;;;;0.70;0.70;;;;;;;;;;5064954;27;88742;-56
2023/07/27 09:45:39;;;;;;;1.53;1.00;;;;;;;;;;5084824;27;87402;-56
2023/07/27 09:48:08;;;;;;;1.00;0.83;;;;;;;;;;5084646;27;90758;-56
2023/07/27 09:50:37;;;;;;;1.10;0.87;;;;;;;;;;5084567;27;89140;-57
2023/07/27 09:53:05;;;;;;;1.03;0.83;;;;;;;;;;5084480;27;88794;-57
2023/07/27 09:55:34;;;;;;;0.70;0.70;;;;;;;;;;5084917;27;87552;-57
2023/07/27 09:58:02;;;;;;;1.13;1.00;;;;;;;;;;5075298;27;90794;-56
2023/07/27 10:00:31;;;;;;;0.60;0.50;;;;;;;;;;5065094;27;89292;-56
2023/07/27 10:03:01;;;;;;;1.17;0.73;;;;;;;;;;5065914;27;88993;-57
2023/07/27 10:05:38;;;;;;;1.37;0.70;;;;;;;;;;5064356;27;88244;-56
2023/07/27 10:08:07;;;;;;;0.80;0.73;;;;;;;;;;5084215;27;89945;-56
2023/07/27 10:10:39;;;;;;;0.90;0.60;;;;;;;;;;5079152;27;89347;-58
2023/07/27 10:13:08;;;;;;;4.77;0.97;;;;;;;;;;5068216;27;89097;-58
2023/07/27 10:15:41;;;;;;;0.77;0.77;;;;;;;;;;5077479;27;87746;-58
2023/07/27 10:18:13;;;;;;;1.50;0.80;;;;;;;;;;5079397;27;89783;-58
2023/07/27 10:20:41;;;;;;;0.90;0.80;;;;;;;;;;5063884;27;89214;-58
2023/07/27 10:23:10;;;;;;;1.07;0.60;;;;;;;;;;5075626;27;88868;-58
2023/07/27 10:25:57;;;;;;;2.17;0.50;;;;;;;;;;5082470;27;87629;-56
2023/07/27 10:28:30;;;;;;;0.90;0.73;;;;;;;;;;5083867;27;89645;-57
2023/07/27 10:31:19;;;;;;;0.50;0.50;;;;;;;;;;5082766;27;90084;-56
2023/07/27 10:33:49;;;;;;;0.50;0.50;;;;;;;;;;5063465;27;89888;-56
2023/07/27 10:36:19;;;;;;;0.30;0.30;;;;;;;;;;5083032;27;87685;-57
2023/07/27 10:38:52;;;;;;;0.60;0.43;;;;;;;;;;5071816;27;89643;-58
2023/07/27 10:41:21;;;;;;;0.37;0.37;;;;;;;;;;5074694;27;89127;-65
2023/07/27 10:44:10;;;;;;;1.07;0.47;;;;;;;;;;5068376;27;88794;-65
2023/07/27 10:46:39;;;;;;;0.40;0.40;;;;;;;;;;5070734;27;87687;-65
2023/07/27 10:49:12;;;;;;;1.33;0.43;;;;;;;;;;5077327;27;88457;-65
2023/07/27 10:51:40;;;;;;;0.90;0.30;;;;;;;;;;5081353;27;87969;-65
2023/07/27 10:54:10;;;;;;;1.27;0.63;;;;;;;;;;5083754;27;88891;-65
2023/07/27 10:56:38;;;;;;;0.43;0.40;;;;;;;;;;5079018;27;87973;-66
2023/07/27 10:59:08;;;;;;;2.50;0.40;;;;;;;;;;5081339;27;88668;-66
2023/07/27 11:01:37;;;;;;;0.23;0.23;;;;;;;;;;5083755;27;89024;-66
2023/07/27 11:04:06;;;;;;;0.60;0.40;;;;;;;;;;5073480;27;88922;-65
2023/07/27 11:06:43;;;;;;;0.40;0.40;;;;;;;;;;5075059;27;87690;-65
2023/07/27 11:09:12;;;;;;;0.50;0.50;;;;;;;;;;5073794;27;89842;-65
2023/07/27 11:11:41;;;;;;;0.70;0.70;;;;;;;;;;5083676;27;89488;-66
2023/07/27 11:14:10;;;;;;;1.70;0.47;;;;;;;;;;5083888;27;87767;-64
2023/07/27 11:16:38;;;;;;;1.30;0.53;;;;;;;;;;5083623;27;87742;-65
2023/07/27 11:19:07;;;;;;;0.70;0.67;;;;;;;;;;5083735;27;89629;-64
2023/07/27 11:21:38;;;;;;;0.70;0.70;;;;;;;;;;5082668;27;90426;-65
2023/07/27 11:24:08;;;;;;;0.93;0.80;;;;;;;;;;5065163;27;89811;-65
2023/07/27 11:26:37;;;;;;;0.70;0.70;;;;;;;;;;5074953;27;88353;-65
2023/07/27 11:29:06;;;;;;;1.23;0.70;;;;;;;;;;5082228;27;89757;-64
2023/07/27 11:31:35;;;;;;;1.53;1.00;;;;;;;;;;5082052;27;89133;-64
2023/07/27 11:34:04;;;;;;;1.10;0.90;;;;;;;;;;5082976;27;88827;-64
2023/07/27 11:36:36;;;;;;;0.60;0.60;;;;;;;;;;5083778;27;87512;-64
2023/07/27 11:39:05;;;;;;;0.80;0.80;;;;;;;;;;5081827;27;89563;-64
2023/07/27 11:41:34;;;;;;;1.47;1.20;;;;;;;;;;5062697;27;88680;-64
2023/07/27 11:44:06;;;;;;;0.93;0.70;;;;;;;;;;5060219;27;88366;-64
2023/07/27 11:46:41;;;;;;;0.80;0.80;;;;;;;;;;5062442;27;87658;-64
2023/07/27 11:49:10;;;;;;;1.10;0.67;;;;;;;;;;5062552;27;89628;-64
2023/07/27 11:51:40;;;;;;;1.90;0.70;;;;;;;;;;5062431;27;89177;-64
2023/07/27 11:54:09;;;;;;;0.77;0.70;;;;;;;;;;5062547;27;88880;-64
2023/07/27 11:56:39;;;;;;;1.80;1.10;;;;;;;;;;5063357;27;87643;-64
2023/07/27 11:59:07;;;;;;;1.50;0.40;;;;;;;;;;5062349;27;89205;-64
2023/07/27 12:01:36;;;;;;;0.50;0.50;;;;;;;;;;5074884;27;89010;-64
2023/07/27 12:04:05;;;;;;;1.03;0.70;;;;;;;;;;5083096;27;88853;-64
2023/07/27 12:06:34;;;;;;;3.77;1.03;;;;;;;;;;5083102;27;87634;-64
2023/07/27 12:09:03;;;;;;;1.57;0.90;;;;;;;;;;5082608;27;88317;-64
2023/07/27 12:11:33;;;;;;;0.63;0.63;;;;;;;;;;5080851;27;88696;-64
2023/07/27 12:14:06;;;;;;;0.50;0.50;;;;;;;;;;5061300;27;89404;-63
2023/07/27 12:16:38;;;;;;;1.43;0.70;;;;;;;;;;5065906;27;87606;-65
2023/07/27 12:19:10;;;;;;;2.03;0.90;;;;;;;;;;5059501;27;88000;-67
2023/07/27 12:21:39;;;;;;;0.87;0.60;;;;;;;;;;5064111;27;89130;-68
2023/07/27 12:24:09;;;;;;;2.23;1.00;;;;;;;;;;5068000;27;88788;-57
2023/07/27 12:26:40;;;;;;;2.37;0.80;;;;;;;;;;5068736;27;87670;-57
2023/07/27 12:29:13;;;;;;;2.77;0.90;;;;;;;;;;5061895;27;89102;-57
2023/07/27 12:31:44;;;;;;;2.30;0.70;;;;;;;;;;5076691;27;88874;-63
2023/07/27 12:34:16;;;;;;;1.10;0.63;;;;;;;;;;5080611;27;88147;-56
2023/07/27 12:36:49;;;;;;;2.30;0.83;;;;;;;;;;5082354;27;87765;-58
2023/07/27 12:39:21;;;;;;;1.27;0.83;;;;;;;;;;5081347;27;89110;-57
2023/07/27 12:41:49;;;;;;;2.13;0.90;;;;;;;;;;5081589;27;88072;-57
2023/07/27 12:44:22;;;;;;;4.47;1.33;;;;;;;;;;5079350;27;87433;-58
2023/07/27 12:46:51;;;;;;;2.40;0.90;;;;;;;;;;5082291;27;87652;-59
2023/07/27 12:49:20;;;;;;;2.53;1.10;;;;;;;;;;5067551;27;89633;-57
2023/07/27 12:51:48;;;;;;;1.50;0.60;;;;;;;;;;5061332;27;88100;-59
2023/07/27 12:54:17;;;;;;;2.60;1.17;;;;;;;;;;5069667;27;88654;-60
2023/07/27 12:56:45;;;;;;;1.70;0.40;;;;;;;;;;5071603;27;88410;-58
2023/07/27 12:59:14;;;;;;;2.37;0.73;;;;;;;;;;5071378;27;89804;-56
2023/07/27 13:01:44;;;;;;;5.43;1.10;;;;;;;;;;5069527;27;88909;-55
2023/07/27 13:04:12;;;;;;;1.37;0.70;;;;;;;;;;5070040;27;88618;-58
2023/07/27 13:06:41;;;;;;;0.60;0.50;;;;;;;;;;5061015;27;87623;-58
2023/07/27 13:09:09;;;;;;;1.63;0.80;;;;;;;;;;5063925;27;89671;-60
2023/07/27 13:11:38;;;;;;;0.60;0.60;;;;;;;;;;5075695;27;87819;-60
2023/07/27 13:14:06;;;;;;;1.73;0.80;;;;;;;;;;5060978;27;88993;-59
2023/07/27 13:16:35;;;;;;;0.97;0.63;;;;;;;;;;5061342;27;87694;-55
2023/07/27 13:19:05;;;;;;;1.47;0.80;;;;;;;;;;5064496;27;89647;-60
2023/07/27 13:21:33;;;;;;;1.93;0.60;;;;;;;;;;5072566;27;89180;-61
2023/07/27 13:24:02;;;;;;;5.73;0.80;;;;;;;;;;5065120;27;88789;-60
2023/07/27 13:26:31;;;;;;;1.60;0.90;;;;;;;;;;5081471;27;87862;-60
2023/07/27 13:29:00;;;;;;;1.83;0.93;;;;;;;;;;5081331;27;89818;-60
2023/07/27 13:31:28;;;;;;;1.47;0.50;;;;;;;;;;5081412;27;87841;-61
2023/07/27 13:33:57;;;;;;;1.20;0.97;;;;;;;;;;5071803;27;89082;-55
2023/07/27 13:36:27;;;;;;;5.43;0.70;;;;;;;;;;5075227;27;87444;-56
2023/07/27 13:38:56;;;;;;;2.30;1.00;;;;;;;;;;5058605;27;89498;-54
2023/07/27 13:41:24;;;;;;;0.53;0.43;;;;;;;;;;5058981;27;89099;-55
2023/07/27 13:43:53;;;;;;;1.93;0.77;;;;;;;;;;5072193;27;88598;-55
2023/07/27 13:46:24;;;;;;;2.33;0.97;;;;;;;;;;5067046;27;87618;-55
2023/07/27 13:48:52;;;;;;;0.77;0.70;;;;;;;;;;5079612;27;89625;-55
2023/07/27 13:51:21;;;;;;;0.77;0.60;;;;;;;;;;5079673;27;89698;-55
2023/07/27 13:53:51;;;;;;;2.90;0.77;;;;;;;;;;5068280;27;89928;-55
2023/07/27 13:56:19;;;;;;;1.57;0.90;;;;;;;;;;5060927;27;87603;-55
2023/07/27 13:58:48;;;;;;;1.03;0.93;;;;;;;;;;5071964;27;89703;-55
2023/07/27 14:01:16;;;;;;;4.33;1.13;;;;;;;;;;5080289;27;89049;-56
2023/07/27 14:03:45;;;;;;;3.93;1.30;;;;;;;;;;5079638;27;88877;-56
2023/07/27 14:06:14;;;;;;;1.33;0.67;;;;;;;;;;5063883;27;87637;-56
2023/07/27 14:08:42;;;;;;;0.70;0.70;;;;;;;;;;5080541;27;89722;-55
2023/07/27 14:11:13;;;;;;;1.53;0.90;;;;;;;;;;5068166;27;89066;-56
2023/07/27 14:13:42;;;;;;;2.53;0.97;;;;;;;;;;5076229;27;89068;-55
2023/07/27 14:16:10;;;;;;;2.77;1.40;;;;;;;;;;5080022;27;87896;-55
2023/07/27 14:18:41;;;;;;;1.03;0.83;;;;;;;;;;5080108;27;89712;-55
2023/07/27 14:21:10;;;;;;;1.60;1.10;;;;;;;;;;5079496;27;89411;-55
2023/07/27 14:23:38;;;;;;;1.83;1.00;;;;;;;;;;5072176;27;88758;-54
2023/07/27 14:26:07;;;;;;;1.60;1.23;;;;;;;;;;5063674;27;87831;-56
2023/07/27 14:28:37;;;;;;;2.40;1.10;;;;;;;;;;5063777;27;89695;-56
2023/07/27 14:31:06;;;;;;;1.63;1.23;;;;;;;;;;5063447;27;89123;-55
2023/07/27 14:33:42;;;;;;;1.80;1.50;;;;;;;;;;5063424;27;87689;-58
2023/07/27 14:36:11;;;;;;;3.10;1.60;;;;;;;;;;5067242;27;87506;-56
2023/07/27 14:38:39;;;;;;;2.20;1.70;;;;;;;;;;5083419;27;89538;-55
2023/07/27 14:41:08;;;;;;;4.40;1.70;;;;;;;;;;5083666;27;88950;-56
2023/07/27 14:43:42;;;;;;;2.17;1.93;;;;;;;;;;5083356;27;89798;-56
2023/07/27 14:46:11;;;;;;;4.40;2.20;;;;;;;;;;5081203;27;87477;-55
2023/07/27 14:48:40;;;;;;;3.53;2.37;;;;;;;;;;5083340;27;89984;-56
2023/07/27 14:51:16;;;;;;;6.97;2.73;;;;;;;;;;5083750;27;89170;-56
2023/07/27 14:53:45;;;;;;;2.87;2.20;;;;;;;;;;5083865;27;88970;-56
2023/07/27 14:56:20;;;;;;;5.97;3.27;;;;;;;;;;5084158;27;87290;-56